Punto Fijo, Venezuela
Current Conditions -  °F | °C
As of 8:00 PM on Friday 24 Oct 2014 (Local Time) from TNCA Reporting Station
Few Clouds Few Clouds  
Wind Chill: 84°   Ceiling: Unl
Heat Index: 94°   Visibility: 6mi
Dew Point: 77°   Wind: 12mph
Humidity: 79%   Direction: 80°E
Pressure: 29.77"   Gusts: NA
Location:  11.71°N, 70.2°W
Report Text: TNCA 250000Z 08010KT 9999 FEW019 29/25 Q1008 A2978 NOSIG
Loading
Personal Weather Stations






























Interactive Weather Map
Tropical Storm Tracking
New forecast layout! Learn more

10-Day Weather Forecast

Advertisements
Track Severe Weather on mobile